createdAt,value
2023-08-14T00:00:46.747Z,18.49
2023-08-14T00:01:46.868Z,18.46
2023-08-14T00:02:46.888Z,18.43
2023-08-14T00:03:46.860Z,18.48
2023-08-14T00:04:46.898Z,18.51
2023-08-14T00:05:46.946Z,18.51
2023-08-14T00:06:47.001Z,18.49
2023-08-14T00:07:47.088Z,18.58
2023-08-14T00:08:47.062Z,18.58
2023-08-14T00:09:47.126Z,18.52
2023-08-14T00:10:47.201Z,18.53
2023-08-14T00:11:47.186Z,18.60
2023-08-14T00:12:47.199Z,18.53
2023-08-14T00:13:47.197Z,18.51
2023-08-14T00:14:47.187Z,18.41
2023-08-14T00:15:47.197Z,18.30
2023-08-14T00:16:47.219Z,18.28
2023-08-14T00:17:47.337Z,18.34
2023-08-14T00:18:47.327Z,18.34
2023-08-14T00:19:47.308Z,18.41
2023-08-14T00:20:47.371Z,18.37
2023-08-14T00:21:47.470Z,18.41
2023-08-14T00:22:47.485Z,18.39
2023-08-14T00:23:47.462Z,18.42
2023-08-14T00:24:47.476Z,18.45
2023-08-14T00:25:47.470Z,18.45
2023-08-14T00:26:47.435Z,18.45
2023-08-14T00:27:47.513Z,18.49
2023-08-14T00:28:47.499Z,18.49
2023-08-14T00:29:47.503Z,18.57
2023-08-14T00:30:47.524Z,18.66
2023-08-14T00:31:47.501Z,18.63
2023-08-14T00:32:47.593Z,18.60
2023-08-14T00:33:47.554Z,18.58
2023-08-14T00:34:47.644Z,18.58
2023-08-14T00:35:47.647Z,18.58
2023-08-14T00:36:47.625Z,18.58
2023-08-14T00:37:47.695Z,18.58
2023-08-14T00:38:47.760Z,18.58
2023-08-14T00:39:47.839Z,18.64
2023-08-14T00:40:47.824Z,18.53
2023-08-14T00:41:47.911Z,18.48
2023-08-14T00:42:47.884Z,18.52
2023-08-14T00:43:47.939Z,18.53
2023-08-14T00:44:47.991Z,18.51
2023-08-14T00:45:48.057Z,18.57
2023-08-14T00:46:48.219Z,18.57
2023-08-14T00:47:48.194Z,18.48
2023-08-14T00:48:48.198Z,18.53
2023-08-14T00:49:48.198Z,18.53
2023-08-14T00:50:48.183Z,18.57
2023-08-14T00:51:48.230Z,18.49
2023-08-14T00:52:48.346Z,18.57
2023-08-14T00:53:48.352Z,18.55
2023-08-14T00:54:48.431Z,18.60
2023-08-14T00:55:48.405Z,18.64
2023-08-14T00:56:48.460Z,18.63
2023-08-14T00:57:48.453Z,18.55
2023-08-14T00:58:48.525Z,18.48
2023-08-14T00:59:48.533Z,18.52
2023-08-14T01:00:48.608Z,18.57
2023-08-14T01:01:48.657Z,18.51
2023-08-14T01:02:48.755Z,18.39
2023-08-14T01:03:48.709Z,18.37
2023-08-14T01:04:48.817Z,18.42
2023-08-14T01:05:48.818Z,18.53
2023-08-14T01:06:48.769Z,18.64
2023-08-14T01:07:48.821Z,18.61
2023-08-14T01:08:48.881Z,18.61
2023-08-14T01:09:48.969Z,18.60
2023-08-14T01:10:48.995Z,18.67
2023-08-14T01:11:48.978Z,18.66
2023-08-14T01:12:49.053Z,18.64
2023-08-14T01:13:49.121Z,18.64
2023-08-14T01:14:49.188Z,18.63
2023-08-14T01:15:49.164Z,18.64
2023-08-14T01:16:49.258Z,18.55
2023-08-14T01:17:49.242Z,18.48
2023-08-14T01:18:49.301Z,18.41
2023-08-14T01:19:49.384Z,18.37
2023-08-14T01:20:49.354Z,18.41
2023-08-14T01:21:49.432Z,18.52
2023-08-14T01:22:49.466Z,18.58
2023-08-14T01:23:49.521Z,18.67
2023-08-14T01:24:49.596Z,18.64
2023-08-14T01:25:49.644Z,18.46
2023-08-14T01:26:49.706Z,18.51
2023-08-14T01:27:49.741Z,18.52
2023-08-14T01:28:49.795Z,18.55
2023-08-14T01:29:49.879Z,18.63
2023-08-14T01:30:49.915Z,18.58
2023-08-14T01:31:49.870Z,18.60
2023-08-14T01:32:49.964Z,18.61
2023-08-14T01:33:49.928Z,18.64
2023-08-14T01:34:49.996Z,18.67
2023-08-14T01:35:50.054Z,18.66
2023-08-14T01:36:50.128Z,18.63
2023-08-14T01:37:50.203Z,18.63
2023-08-14T01:38:50.174Z,18.58
2023-08-14T01:39:50.274Z,18.58
2023-08-14T01:40:50.283Z,18.53
2023-08-14T01:41:50.253Z,18.57
2023-08-14T01:42:50.232Z,18.55
2023-08-14T01:43:50.286Z,18.49
2023-08-14T01:44:50.344Z,18.41
2023-08-14T01:45:50.450Z,18.28
2023-08-14T01:46:50.438Z,18.37
2023-08-14T01:47:50.524Z,18.36
2023-08-14T01:48:50.464Z,18.41
2023-08-14T01:49:50.479Z,18.41
2023-08-14T01:50:50.558Z,18.42
2023-08-14T01:51:50.564Z,18.46
2023-08-14T01:52:50.545Z,18.48
2023-08-14T01:53:50.536Z,18.49
2023-08-14T01:54:50.585Z,18.51
2023-08-14T01:55:50.646Z,18.51
2023-08-14T01:56:50.717Z,18.53
2023-08-14T01:59:16.747Z,18.57
2023-08-14T02:00:16.827Z,18.51
2023-08-14T02:01:16.800Z,18.49
2023-08-14T02:02:17.062Z,18.49
2023-08-14T02:03:16.924Z,18.43
2023-08-14T02:04:16.892Z,18.36
2023-08-14T02:05:16.964Z,18.36
2023-08-14T02:06:17.018Z,18.31
2023-08-14T02:07:17.080Z,18.30
2023-08-14T02:08:17.134Z,18.30
2023-08-14T02:09:17.182Z,18.28
2023-08-14T02:10:17.226Z,18.30
2023-08-14T02:11:17.282Z,18.31
2023-08-14T02:12:17.630Z,18.33
2023-08-14T02:13:17.367Z,18.30
2023-08-14T02:14:17.339Z,18.31
2023-08-14T02:15:17.429Z,18.33
2023-08-14T02:16:17.410Z,18.36
2023-08-14T02:17:17.449Z,18.37
2023-08-14T02:18:17.542Z,18.39
2023-08-14T02:19:17.539Z,18.42
2023-08-14T02:20:17.534Z,18.41
2023-08-14T02:21:17.551Z,18.41
2023-08-14T02:22:17.918Z,18.43
2023-08-14T02:23:17.579Z,18.42
2023-08-14T02:24:17.618Z,18.43
2023-08-14T02:25:17.677Z,18.39
2023-08-14T02:26:17.675Z,18.34
2023-08-14T02:27:17.645Z,18.34
2023-08-14T02:28:17.707Z,18.27
2023-08-14T02:29:17.766Z,18.30
2023-08-14T02:30:17.832Z,18.24
2023-08-14T02:31:17.978Z,18.19
2023-08-14T02:32:18.147Z,18.30
2023-08-14T02:33:17.950Z,18.36
2023-08-14T02:34:18.001Z,18.28
2023-08-14T02:35:18.074Z,18.28
2023-08-14T02:36:18.039Z,18.27
2023-08-14T02:37:18.124Z,18.26
2023-08-14T02:38:18.135Z,18.19
2023-08-14T02:39:18.224Z,18.19
2023-08-14T02:40:18.100Z,18.23
2023-08-14T02:41:18.156Z,18.19
2023-08-14T02:42:18.447Z,18.21
2023-08-14T02:43:18.258Z,18.24
2023-08-14T02:44:18.308Z,18.26
2023-08-14T02:45:18.358Z,18.21
2023-08-14T02:46:18.445Z,18.23
2023-08-14T02:47:18.434Z,18.21
2023-08-14T02:48:18.478Z,18.23
2023-08-14T02:49:18.522Z,18.28
2023-08-14T02:50:18.590Z,18.18
2023-08-14T02:51:18.642Z,18.15
2023-08-14T02:52:19.129Z,18.12
2023-08-14T02:53:18.696Z,18.13
2023-08-14T02:54:18.766Z,18.15
2023-08-14T02:55:18.728Z,18.24
2023-08-14T02:56:18.764Z,18.24
2023-08-14T02:57:18.823Z,18.34
2023-08-14T02:58:18.881Z,18.36
2023-08-14T02:59:18.968Z,18.37
2023-08-14T03:00:18.950Z,18.36
2023-08-14T03:01:19.070Z,18.36
2023-08-14T03:02:19.348Z,18.33
2023-08-14T03:03:19.152Z,18.33
2023-08-14T03:04:19.180Z,18.27
2023-08-14T03:05:19.265Z,18.19
2023-08-14T03:06:19.234Z,18.28
2023-08-14T03:07:19.301Z,18.27
2023-08-14T03:08:19.291Z,18.27
2023-08-14T03:09:19.347Z,18.19
2023-08-14T03:10:19.442Z,18.13
2023-08-14T03:11:19.404Z,18.00
2023-08-14T03:12:19.790Z,17.98
2023-08-14T03:13:19.460Z,17.98
2023-08-14T03:14:19.523Z,17.98
2023-08-14T03:15:19.581Z,17.98
2023-08-14T03:16:19.634Z,17.95
2023-08-14T03:17:19.641Z,18.03
2023-08-14T03:18:19.614Z,18.08
2023-08-14T03:19:19.662Z,18.11
2023-08-14T03:20:19.712Z,18.09
2023-08-14T03:21:19.739Z,18.02
2023-08-14T03:22:20.024Z,17.86
2023-08-14T03:23:19.851Z,17.94
2023-08-14T03:24:19.840Z,17.97
2023-08-14T03:25:19.884Z,17.87
2023-08-14T03:26:19.926Z,17.95
2023-08-14T03:27:19.959Z,17.94
2023-08-14T03:28:20.030Z,17.97
2023-08-14T03:29:20.065Z,18.00
2023-08-14T03:30:20.133Z,18.05
2023-08-14T03:31:20.148Z,18.15
2023-08-14T03:32:20.448Z,18.13
2023-08-14T03:33:20.176Z,18.21
2023-08-14T03:34:20.232Z,18.24
2023-08-14T03:35:20.414Z,18.21
2023-08-14T03:36:20.324Z,18.13
2023-08-14T03:37:20.336Z,18.12
2023-08-14T03:38:20.400Z,18.18
2023-08-14T03:39:20.413Z,18.27
2023-08-14T03:40:20.404Z,18.24
2023-08-14T03:41:20.421Z,18.26
2023-08-14T03:42:20.619Z,18.27
2023-08-14T03:43:20.497Z,18.33
2023-08-14T03:44:20.527Z,18.33
2023-08-14T03:45:20.550Z,18.34
2023-08-14T03:46:20.561Z,18.28
2023-08-14T03:47:20.553Z,18.27
2023-08-14T03:48:20.537Z,18.19
2023-08-14T03:49:20.632Z,18.11
2023-08-14T03:50:20.616Z,18.12
2023-08-14T03:51:20.615Z,18.15
2023-08-14T03:52:20.747Z,18.16
2023-08-14T03:53:20.643Z,18.16
2023-08-14T03:54:20.684Z,18.13
2023-08-14T03:55:20.724Z,18.12
2023-08-14T03:56:20.807Z,18.09
2023-08-14T03:57:20.807Z,18.03
2023-08-14T03:58:20.840Z,18.00
2023-08-14T03:59:20.909Z,18.02
2023-08-14T04:00:20.996Z,18.06
2023-08-14T04:01:20.992Z,18.08
2023-08-14T04:02:21.423Z,17.97
2023-08-14T04:03:21.122Z,17.95
2023-08-14T04:04:21.053Z,18.02
2023-08-14T04:05:21.076Z,18.09
2023-08-14T04:06:21.110Z,18.05
2023-08-14T04:07:21.099Z,18.05
2023-08-14T04:08:21.161Z,18.00
2023-08-14T04:09:21.183Z,18.00
2023-08-14T04:10:21.239Z,18.06
2023-08-14T04:11:21.265Z,18.02
2023-08-14T04:12:21.491Z,18.02
2023-08-14T04:13:21.312Z,18.00
2023-08-14T04:14:21.371Z,18.03
2023-08-14T04:15:21.437Z,18.03
2023-08-14T04:16:21.512Z,18.06
2023-08-14T04:17:21.520Z,18.05
2023-08-14T04:18:21.609Z,18.02
2023-08-14T04:19:21.536Z,17.95
2023-08-14T04:20:21.526Z,17.93
2023-08-14T04:21:21.527Z,17.93
2023-08-14T04:22:21.666Z,17.91
2023-08-14T04:23:21.655Z,17.94
2023-08-14T04:24:21.706Z,17.90
2023-08-14T04:25:21.716Z,17.95
2023-08-14T04:26:21.709Z,17.98
2023-08-14T04:27:21.770Z,18.00
2023-08-14T04:28:21.852Z,17.98
2023-08-14T04:29:21.859Z,17.98
2023-08-14T04:30:21.898Z,18.00
2023-08-14T04:31:21.946Z,17.98
2023-08-14T04:32:21.957Z,17.98
2023-08-14T04:33:21.968Z,18.00
2023-08-14T04:34:21.999Z,18.02
2023-08-14T04:35:22.009Z,18.03
2023-08-14T04:36:22.028Z,18.05
2023-08-14T04:37:22.042Z,18.06
2023-08-14T04:38:22.057Z,18.08
2023-08-14T04:39:22.048Z,18.11
2023-08-14T04:40:22.054Z,18.16
2023-08-14T04:41:22.080Z,18.15
2023-08-14T04:42:22.093Z,18.15
2023-08-14T04:43:22.163Z,18.15
2023-08-14T04:44:22.148Z,18.19
2023-08-14T04:45:22.208Z,18.23
2023-08-14T04:46:22.259Z,18.28
2023-08-14T04:47:22.273Z,18.30
2023-08-14T04:48:22.290Z,18.34
2023-08-14T04:49:22.315Z,18.34
2023-08-14T04:50:22.280Z,18.34
2023-08-14T04:51:22.263Z,18.37
2023-08-14T04:52:22.333Z,18.43
2023-08-14T04:53:22.372Z,18.48
2023-08-14T04:54:22.384Z,18.48
2023-08-14T04:55:22.364Z,18.48
2023-08-14T04:56:22.414Z,18.51
2023-08-14T04:57:22.456Z,18.51
2023-08-14T04:58:22.476Z,18.53
2023-08-14T04:59:22.481Z,18.52
2023-08-14T05:00:22.543Z,18.45
2023-08-14T05:01:22.565Z,18.46
2023-08-14T05:02:22.616Z,18.53
2023-08-14T05:03:22.640Z,18.60
2023-08-14T05:04:22.632Z,18.64
2023-08-14T05:05:22.662Z,18.63
2023-08-14T05:06:22.676Z,18.53
2023-08-14T05:07:24.245Z,18.45
2023-08-14T05:08:22.775Z,18.53
2023-08-14T05:09:27.189Z,18.66
2023-08-14T05:10:22.786Z,18.73
2023-08-14T05:11:22.794Z,18.66
2023-08-14T05:12:22.824Z,18.73
2023-08-14T05:13:22.887Z,18.79
2023-08-14T05:14:22.945Z,18.73
2023-08-14T05:15:22.965Z,18.78
2023-08-14T05:16:23.061Z,18.85
2023-08-14T05:17:23.051Z,18.86
2023-08-14T05:18:23.047Z,18.94
2023-08-14T05:19:23.135Z,19.01
2023-08-14T05:20:23.135Z,18.86
2023-08-14T05:21:23.176Z,18.68
2023-08-14T05:22:23.220Z,19.01
2023-08-14T05:23:23.236Z,19.42
2023-08-14T05:24:23.275Z,19.90
2023-08-14T05:25:23.297Z,20.60
2023-08-14T05:26:23.312Z,21.28
2023-08-14T05:27:23.340Z,21.99
2023-08-14T05:28:23.421Z,22.40
2023-08-14T05:29:23.400Z,22.92
2023-08-14T05:30:23.430Z,23.20
2023-08-14T05:31:23.467Z,23.45
2023-08-14T05:32:23.474Z,23.82
2023-08-14T05:33:23.509Z,24.14
2023-08-14T05:34:23.535Z,24.43
2023-08-14T05:35:23.592Z,24.75
2023-08-14T05:36:23.626Z,24.66
2023-08-14T05:37:23.645Z,24.86
2023-08-14T05:38:23.661Z,25.07
2023-08-14T05:39:23.684Z,25.31
2023-08-14T05:40:23.694Z,25.56
2023-08-14T05:41:23.754Z,25.83
2023-08-14T05:42:23.809Z,26.01
2023-08-14T05:43:23.821Z,26.04
2023-08-14T05:44:23.836Z,26.03
2023-08-14T05:45:23.896Z,26.07
2023-08-14T05:46:23.902Z,26.37
2023-08-14T05:47:23.956Z,26.64
2023-08-14T05:48:23.913Z,26.88
2023-08-14T05:49:23.978Z,26.92
2023-08-14T05:50:24.061Z,27.19
2023-08-14T05:51:24.055Z,27.38
2023-08-14T05:52:24.032Z,27.67
2023-08-14T05:53:24.097Z,27.88
2023-08-14T05:54:24.077Z,28.04
2023-08-14T05:55:24.098Z,28.04
2023-08-14T05:56:24.091Z,28.22
2023-08-14T05:57:24.111Z,28.41
2023-08-14T05:58:24.079Z,28.53
2023-08-14T05:59:24.157Z,28.50
2023-08-14T06:00:24.160Z,28.62
2023-08-14T06:01:24.191Z,28.71
2023-08-14T06:02:24.253Z,28.90
2023-08-14T06:03:37.548Z,28.90
2023-08-14T06:04:24.312Z,29.03
2023-08-14T06:05:24.335Z,29.03
2023-08-14T06:06:24.360Z,29.16
2023-08-14T06:07:24.385Z,29.43
2023-08-14T06:08:24.408Z,29.59
2023-08-14T06:09:24.689Z,29.64
2023-08-14T06:10:24.442Z,29.34
2023-08-14T06:11:24.425Z,29.30
2023-08-14T06:12:24.669Z,29.35
2023-08-14T06:13:24.506Z,29.44
2023-08-14T06:14:24.623Z,29.44
2023-08-14T06:15:24.596Z,29.15
2023-08-14T06:16:24.708Z,29.05
2023-08-14T06:17:24.658Z,29.05
2023-08-14T06:18:24.704Z,28.70
2023-08-14T06:19:24.794Z,28.19
2023-08-14T06:20:24.762Z,28.10
2023-08-14T06:21:24.823Z,27.98
2023-08-14T06:22:24.874Z,28.06
2023-08-14T06:23:24.933Z,28.09
2023-08-14T06:24:25.026Z,28.13
2023-08-14T06:25:25.004Z,28.16
2023-08-14T06:26:25.095Z,28.34
2023-08-14T06:27:25.064Z,28.22
2023-08-14T06:28:25.145Z,28.27
2023-08-14T06:29:25.168Z,27.79
2023-08-14T06:30:25.201Z,27.58
2023-08-14T06:31:25.205Z,27.25
2023-08-14T06:32:25.205Z,27.38
2023-08-14T06:33:25.224Z,27.41
2023-08-14T06:34:25.213Z,27.26
2023-08-14T06:35:25.200Z,27.01
2023-08-14T06:36:25.245Z,26.88
2023-08-14T06:37:25.320Z,26.64
2023-08-14T06:38:25.302Z,26.49
2023-08-14T06:39:25.375Z,26.73
2023-08-14T06:40:25.351Z,26.52
2023-08-14T06:41:25.440Z,26.63
2023-08-14T06:42:25.485Z,26.71
2023-08-14T06:43:25.554Z,26.19
2023-08-14T06:44:25.632Z,26.08
2023-08-14T06:45:25.624Z,26.56
2023-08-14T06:46:25.769Z,26.82
2023-08-14T06:47:25.731Z,27.05
2023-08-14T06:48:25.714Z,27.08
2023-08-14T06:49:25.705Z,27.13
2023-08-14T06:50:25.768Z,27.50
2023-08-14T06:51:25.872Z,27.97
2023-08-14T06:52:25.891Z,28.31
2023-08-14T06:53:25.877Z,28.75
2023-08-14T06:54:25.963Z,29.00
2023-08-14T06:55:25.965Z,29.05
2023-08-14T06:56:25.966Z,29.15
2023-08-14T06:57:25.961Z,29.40
2023-08-14T06:58:25.942Z,29.47
2023-08-14T06:59:26.006Z,29.57
2023-08-14T07:00:25.996Z,29.67
2023-08-14T07:01:26.049Z,29.58
2023-08-14T07:02:26.142Z,29.64
2023-08-14T07:03:26.239Z,30.03
2023-08-14T07:04:26.155Z,30.13
2023-08-14T07:05:26.181Z,29.71
2023-08-14T07:06:26.158Z,29.22
2023-08-14T07:07:26.250Z,29.12
2023-08-14T07:08:26.225Z,29.18
2023-08-14T07:09:26.217Z,29.35
2023-08-14T07:10:26.220Z,29.43
2023-08-14T07:11:26.262Z,28.78
2023-08-14T07:12:26.354Z,28.56
2023-08-14T07:13:26.319Z,28.64
2023-08-14T07:14:30.507Z,28.52
2023-08-14T07:15:26.443Z,27.78
2023-08-14T07:16:26.437Z,27.78
2023-08-14T07:17:26.514Z,27.67
2023-08-14T07:18:26.500Z,27.23
2023-08-14T07:19:26.481Z,27.03
2023-08-14T07:20:26.596Z,27.20
2023-08-14T07:21:26.556Z,27.91
2023-08-14T07:22:26.619Z,27.94
2023-08-14T07:23:26.710Z,28.28
2023-08-14T07:24:26.692Z,28.57
2023-08-14T07:25:26.776Z,28.86
2023-08-14T07:26:26.802Z,29.32
2023-08-14T07:27:26.856Z,30.16
2023-08-14T07:28:26.980Z,30.65
2023-08-14T07:29:26.952Z,31.10
2023-08-14T07:30:26.995Z,31.26
2023-08-14T07:31:26.963Z,31.25
2023-08-14T07:32:27.087Z,31.22
2023-08-14T07:33:27.085Z,30.67
2023-08-14T07:34:27.053Z,30.39
2023-08-14T07:35:27.059Z,30.10
2023-08-14T07:36:27.041Z,29.99
2023-08-14T07:37:27.098Z,30.14
2023-08-14T07:38:27.130Z,30.27
2023-08-14T07:39:27.100Z,30.23
2023-08-14T07:40:27.164Z,30.01
2023-08-14T07:41:27.244Z,29.61
2023-08-14T07:42:27.315Z,29.84
2023-08-14T07:43:27.407Z,29.76
2023-08-14T07:44:27.391Z,29.81
2023-08-14T07:45:27.464Z,30.06
2023-08-14T07:46:27.623Z,29.98
2023-08-14T07:47:27.567Z,29.09
2023-08-14T07:48:27.612Z,29.10
2023-08-14T07:49:27.649Z,29.49
2023-08-14T07:50:27.698Z,29.83
2023-08-14T07:51:27.674Z,30.11
2023-08-14T07:52:27.776Z,30.29
2023-08-14T07:53:27.786Z,29.90
2023-08-14T07:54:27.865Z,29.86
2023-08-14T07:55:27.973Z,30.08
2023-08-14T07:56:27.878Z,30.43
2023-08-14T07:57:27.949Z,30.67
2023-08-14T07:58:27.943Z,30.21
2023-08-14T07:59:28.005Z,30.55
2023-08-14T08:00:28.001Z,31.11
2023-08-14T08:01:28.082Z,30.98
2023-08-14T08:02:29.483Z,30.71
2023-08-14T08:03:28.053Z,30.44
2023-08-14T08:04:28.163Z,30.23
2023-08-14T08:05:28.321Z,30.20
2023-08-14T08:06:28.186Z,30.24
2023-08-14T08:07:28.499Z,29.94
2023-08-14T08:08:28.225Z,30.06
2023-08-14T08:09:28.222Z,30.63
2023-08-14T08:10:28.219Z,30.83
2023-08-14T08:11:28.256Z,29.22
2023-08-14T08:12:28.314Z,28.06
2023-08-14T08:13:29.323Z,28.47
2023-08-14T08:14:28.475Z,28.93
2023-08-14T08:15:28.451Z,28.78
2023-08-14T08:16:28.494Z,28.75
2023-08-14T08:17:28.508Z,29.49
2023-08-14T08:18:28.509Z,30.31
2023-08-14T08:19:28.511Z,30.20
2023-08-14T08:20:29.235Z,30.67
2023-08-14T08:21:28.598Z,30.69
2023-08-14T08:22:28.612Z,29.46
2023-08-14T08:23:28.612Z,29.15
2023-08-14T08:24:28.616Z,29.44
2023-08-14T08:25:28.624Z,29.92
2023-08-14T08:26:28.629Z,30.18
2023-08-14T08:27:28.682Z,30.43
2023-08-14T08:28:28.700Z,30.77
2023-08-14T08:29:28.674Z,31.05
2023-08-14T08:30:28.853Z,31.44
2023-08-14T08:31:28.817Z,31.32
2023-08-14T08:32:31.085Z,31.30
2023-08-14T08:33:28.897Z,31.57
2023-08-14T08:34:28.852Z,31.55
2023-08-14T08:35:28.841Z,31.41
2023-08-14T08:36:28.904Z,31.32
2023-08-14T08:37:28.871Z,31.36
2023-08-14T08:38:28.963Z,31.44
2023-08-14T08:39:28.969Z,31.60
2023-08-14T08:40:28.978Z,31.82
2023-08-14T08:41:28.973Z,31.98
2023-08-14T08:42:28.941Z,31.97
2023-08-14T08:43:29.013Z,32.04
2023-08-14T08:44:29.080Z,32.01
2023-08-14T08:45:29.120Z,31.82
2023-08-14T08:46:29.176Z,31.73
2023-08-14T08:47:29.203Z,31.15
2023-08-14T08:48:29.219Z,30.86
2023-08-14T08:49:29.285Z,30.63
2023-08-14T08:50:29.282Z,30.05
2023-08-14T08:51:29.328Z,29.69
2023-08-14T08:52:29.352Z,29.49
2023-08-14T08:53:29.423Z,29.87
2023-08-14T08:54:29.453Z,30.16
2023-08-14T08:55:29.984Z,30.24
2023-08-14T08:56:29.549Z,29.84
2023-08-14T08:57:29.539Z,29.64
2023-08-14T08:58:29.596Z,29.61
2023-08-14T08:59:29.656Z,29.77
2023-08-14T09:00:29.680Z,29.18
2023-08-14T09:02:29.814Z,29.42
2023-08-14T09:03:29.839Z,29.61
2023-08-14T09:04:29.933Z,29.24
2023-08-14T09:05:29.819Z,28.75
2023-08-14T09:06:29.851Z,29.06
2023-08-14T09:07:29.907Z,29.31
2023-08-14T09:08:29.951Z,29.50
2023-08-14T09:09:29.971Z,29.59
2023-08-14T09:10:29.989Z,29.94
2023-08-14T09:11:29.962Z,30.36
2023-08-14T09:12:30.018Z,30.38
2023-08-14T09:13:32.483Z,30.16
2023-08-14T09:14:30.083Z,30.05
2023-08-14T09:15:33.293Z,29.98
2023-08-14T09:16:30.202Z,30.06
2023-08-14T09:17:30.147Z,29.71
2023-08-14T09:18:30.203Z,29.05
2023-08-14T09:19:30.203Z,29.18
2023-08-14T09:20:31.077Z,29.55
2023-08-14T09:21:30.225Z,30.05
2023-08-14T09:22:30.280Z,30.31
2023-08-14T09:23:30.270Z,30.78
2023-08-14T09:24:30.306Z,30.91
2023-08-14T09:25:30.337Z,31.26
2023-08-14T09:26:30.334Z,31.52
2023-08-14T09:27:30.352Z,31.57
2023-08-14T09:28:30.369Z,31.47
2023-08-14T09:29:30.367Z,31.37
2023-08-14T09:30:30.374Z,31.44
2023-08-14T09:31:31.663Z,31.89
2023-08-14T09:32:30.446Z,32.31
2023-08-14T09:33:30.441Z,32.31
2023-08-14T09:34:30.408Z,32.64
2023-08-14T09:35:30.534Z,33.22
2023-08-14T09:36:30.525Z,32.45
2023-08-14T09:37:30.488Z,32.56
2023-08-14T09:38:30.606Z,32.05
2023-08-14T09:39:30.644Z,32.95
2023-08-14T09:40:30.647Z,32.94
2023-08-14T09:41:30.650Z,32.48
2023-08-14T09:42:30.709Z,32.91
2023-08-14T09:43:30.701Z,33.05
2023-08-14T09:44:30.675Z,33.33
2023-08-14T09:45:30.718Z,33.31
2023-08-14T09:46:30.780Z,33.75
2023-08-14T09:47:30.865Z,33.88
2023-08-14T09:48:30.834Z,34.06
2023-08-14T09:49:30.799Z,34.09
2023-08-14T09:50:30.914Z,33.23
2023-08-14T09:51:30.926Z,33.19
2023-08-14T09:52:30.969Z,33.94
2023-08-14T09:53:30.982Z,34.41
2023-08-14T09:54:32.738Z,34.71
2023-08-14T09:55:31.109Z,35.05
2023-08-14T09:56:31.110Z,35.47
2023-08-14T09:57:31.107Z,35.87
2023-08-14T09:58:31.116Z,36.53
2023-08-14T09:59:31.186Z,35.64
2023-08-14T10:00:31.264Z,35.26
2023-08-14T10:01:31.231Z,34.62
2023-08-14T10:02:31.284Z,34.43
2023-08-14T10:03:31.268Z,34.59
2023-08-14T10:04:31.292Z,33.47
2023-08-14T10:05:31.340Z,32.95
2023-08-14T10:06:31.304Z,32.63
2023-08-14T10:07:31.360Z,31.79
2023-08-14T10:08:31.419Z,31.60
2023-08-14T10:09:31.469Z,31.54
2023-08-14T10:10:31.474Z,31.67
2023-08-14T10:11:31.472Z,32.38
2023-08-14T10:12:31.586Z,32.71
2023-08-14T10:13:31.664Z,32.53
2023-08-14T10:14:31.600Z,33.28
2023-08-14T10:15:31.668Z,33.79
2023-08-14T10:16:31.774Z,33.94
2023-08-14T10:17:31.766Z,34.09
2023-08-14T10:18:31.799Z,34.46
2023-08-14T10:19:31.795Z,34.69
2023-08-14T10:20:31.773Z,35.00
2023-08-14T10:21:31.784Z,35.37
2023-08-14T10:22:31.859Z,35.26
2023-08-14T10:23:31.861Z,35.19
2023-08-14T10:24:31.880Z,34.62
2023-08-14T10:25:31.911Z,34.24
2023-08-14T10:26:31.939Z,34.37
2023-08-14T10:27:31.967Z,34.09
2023-08-14T10:28:31.992Z,33.92
2023-08-14T10:29:32.002Z,33.88
2023-08-14T10:30:32.022Z,33.92
2023-08-14T10:31:32.095Z,34.19
2023-08-14T10:32:34.202Z,34.69
2023-08-14T10:33:32.132Z,34.83
2023-08-14T10:34:32.180Z,35.15
2023-08-14T10:35:32.222Z,32.95
2023-08-14T10:36:32.260Z,32.49
2023-08-14T10:37:32.260Z,33.20
2023-08-14T10:38:32.282Z,32.83
2023-08-14T10:39:32.390Z,32.35
2023-08-14T10:40:32.397Z,32.11
2023-08-14T10:41:32.396Z,32.11
2023-08-14T10:42:32.404Z,31.60
2023-08-14T10:43:32.397Z,31.74
2023-08-14T10:44:32.376Z,31.54
2023-08-14T10:45:32.382Z,31.45
2023-08-14T10:46:32.432Z,31.77
2023-08-14T10:47:32.449Z,32.49
2023-08-14T10:48:32.465Z,33.22
2023-08-14T10:49:32.497Z,33.81
2023-08-14T10:50:32.564Z,34.21
2023-08-14T10:51:32.564Z,34.48
2023-08-14T10:52:34.650Z,34.44
2023-08-14T10:53:32.621Z,34.71
2023-08-14T10:54:32.654Z,34.53
2023-08-14T10:55:32.699Z,34.02
2023-08-14T10:56:32.773Z,33.53
2023-08-14T10:57:32.807Z,33.81
2023-08-14T10:58:32.840Z,33.89
2023-08-14T10:59:32.890Z,34.13
2023-08-14T11:00:32.909Z,34.25
2023-08-14T11:01:33.039Z,34.31
2023-08-14T11:02:33.025Z,34.66
2023-08-14T11:03:33.084Z,34.24
2023-08-14T11:04:33.122Z,34.21
2023-08-14T11:05:33.142Z,34.32
2023-08-14T11:06:33.184Z,33.87
2023-08-14T11:07:33.224Z,33.60
2023-08-14T11:08:33.250Z,33.85
2023-08-14T11:09:33.284Z,34.07
2023-08-14T11:10:33.348Z,33.91
2023-08-14T11:11:33.387Z,33.79
2023-08-14T11:12:33.419Z,34.04
2023-08-14T11:13:33.475Z,34.31
2023-08-14T11:14:33.507Z,34.09
2023-08-14T11:15:33.559Z,33.75
2023-08-14T11:16:33.651Z,32.15
2023-08-14T11:17:33.616Z,32.09
2023-08-14T11:18:33.636Z,32.23
2023-08-14T11:19:33.676Z,32.11
2023-08-14T11:20:33.729Z,32.35
2023-08-14T11:21:33.813Z,32.63
2023-08-14T11:22:33.784Z,33.05
2023-08-14T11:23:33.817Z,33.79
2023-08-14T11:24:33.853Z,33.75
2023-08-14T11:25:33.890Z,33.94
2023-08-14T11:26:33.952Z,34.25
2023-08-14T11:27:33.939Z,33.95
2023-08-14T11:28:34.002Z,34.00
2023-08-14T11:29:34.055Z,34.38
2023-08-14T11:30:34.121Z,34.31
2023-08-14T11:31:34.556Z,33.77
2023-08-14T11:32:34.207Z,33.53
2023-08-14T11:33:34.156Z,33.42
2023-08-14T11:34:34.185Z,33.84
2023-08-14T11:35:34.221Z,34.02
2023-08-14T11:36:34.937Z,34.21
2023-08-14T11:37:34.327Z,34.50
2023-08-14T11:38:34.319Z,34.56
2023-08-14T11:39:34.430Z,34.53
2023-08-14T11:40:34.398Z,34.69
2023-08-14T11:41:34.368Z,34.51
2023-08-14T11:42:34.459Z,34.75
2023-08-14T11:43:34.436Z,34.82
2023-08-14T11:44:34.568Z,34.78
2023-08-14T11:45:34.554Z,34.58
2023-08-14T11:46:34.541Z,34.16
2023-08-14T11:47:34.759Z,34.09
2023-08-14T11:48:34.642Z,34.13
2023-08-14T11:49:34.650Z,34.02
2023-08-14T11:50:34.736Z,33.51
2023-08-14T11:51:34.801Z,33.82
2023-08-14T11:52:34.822Z,33.29
2023-08-14T11:53:34.873Z,33.73
2023-08-14T11:54:34.923Z,33.98
2023-08-14T11:55:35.011Z,34.46
2023-08-14T11:56:35.098Z,34.11
2023-08-14T11:57:35.073Z,32.98
2023-08-14T11:58:35.129Z,32.61
2023-08-14T11:59:35.233Z,33.03
2023-08-14T12:00:35.207Z,33.31
2023-08-14T12:01:35.376Z,33.66
2023-08-14T12:02:35.280Z,33.79
2023-08-14T12:03:35.303Z,33.58
2023-08-14T12:04:35.348Z,33.16
2023-08-14T12:05:35.355Z,33.29
2023-08-14T12:06:35.361Z,33.63
2023-08-14T12:07:35.336Z,33.58
2023-08-14T12:08:35.398Z,33.04
2023-08-14T12:09:35.449Z,33.09
2023-08-14T12:10:35.539Z,33.36
2023-08-14T12:11:35.550Z,33.53
2023-08-14T12:12:36.649Z,34.26
2023-08-14T12:13:35.527Z,34.89
2023-08-14T12:14:35.534Z,34.60
2023-08-14T12:15:36.505Z,33.63
2023-08-14T12:16:35.590Z,33.04
2023-08-14T12:17:35.798Z,32.68
2023-08-14T12:18:35.702Z,32.41
2023-08-14T12:19:35.700Z,33.03
2023-08-14T12:20:35.695Z,33.42
2023-08-14T12:21:35.745Z,33.82
2023-08-14T12:22:35.806Z,33.40
2023-08-14T12:23:35.875Z,33.48
2023-08-14T12:24:35.916Z,33.44
2023-08-14T12:25:35.982Z,33.42
2023-08-14T12:26:35.952Z,33.50
2023-08-14T12:27:36.001Z,33.79
2023-08-14T12:28:35.991Z,32.51
2023-08-14T12:29:36.054Z,32.63
2023-08-14T12:30:36.131Z,33.39
2023-08-14T12:31:36.237Z,33.63
2023-08-14T12:32:36.176Z,33.55
2023-08-14T12:33:36.164Z,33.55
2023-08-14T12:34:36.234Z,33.89
2023-08-14T12:35:36.275Z,34.04
2023-08-14T12:36:36.360Z,34.25
2023-08-14T12:37:36.392Z,34.41
2023-08-14T12:38:36.448Z,34.69
2023-08-14T12:39:36.528Z,34.13
2023-08-14T12:40:36.583Z,34.44
2023-08-14T12:41:36.651Z,34.60
2023-08-14T12:42:36.627Z,34.48
2023-08-14T12:43:40.838Z,34.71
2023-08-14T12:44:36.720Z,34.51
2023-08-14T12:45:36.764Z,34.70
2023-08-14T12:46:36.855Z,34.70
2023-08-14T12:47:37.768Z,34.07
2023-08-14T12:48:36.876Z,33.72
2023-08-14T12:49:37.916Z,33.44
2023-08-14T12:50:36.977Z,33.15
2023-08-14T12:51:36.945Z,32.86
2023-08-14T12:52:36.967Z,33.42
2023-08-14T12:53:36.999Z,33.84
2023-08-14T12:54:39.516Z,34.00
2023-08-14T12:55:37.115Z,34.26